sensor_id;sensor_type;location;lat;lon;timestamp;temperature;humidity
19516;DHT22;9901;47.448;7.692;2022-10-22T10:18:28;22.40;99.90
19516;DHT22;9901;47.448;7.692;2022-10-22T10:21:37;22.50;99.90
19516;DHT22;9901;47.448;7.692;2022-10-22T10:24:28;22.90;99.90
19516;DHT22;9901;47.448;7.692;2022-10-22T10:27:04;23.00;99.90
19516;DHT22;9901;47.448;7.692;2022-10-22T10:33:15;23.10;99.90
19516;DHT22;9901;47.448;7.692;2022-10-22T10:36:09;23.10;99.90
19516;DHT22;9901;47.448;7.692;2022-10-22T10:49:42;23.40;99.90
19516;DHT22;9901;47.448;7.692;2022-10-22T10:52:23;23.60;99.90
19516;DHT22;9901;47.448;7.692;2022-10-22T10:57:33;23.60;99.90
19516;DHT22;9901;47.448;7.692;2022-10-22T11:00:15;23.50;99.90
19516;DHT22;9901;47.448;7.692;2022-10-22T11:05:44;22.80;99.90
19516;DHT22;9901;47.448;7.692;2022-10-22T11:08:38;22.80;99.90
19516;DHT22;9901;47.448;7.692;2022-10-22T11:16:43;23.00;99.90
19516;DHT22;9901;47.448;7.692;2022-10-22T11:19:42;23.00;99.90
19516;DHT22;9901;47.448;7.692;2022-10-22T11:22:14;23.10;99.90
19516;DHT22;9901;47.448;7.692;2022-10-22T11:25:02;23.00;99.90
19516;DHT22;9901;47.448;7.692;2022-10-22T11:27:38;23.40;99.90
19516;DHT22;9901;47.448;7.692;2022-10-22T11:32:43;23.60;99.90
19516;DHT22;9901;47.448;7.692;2022-10-22T11:35:23;23.50;99.90
19516;DHT22;9901;47.448;7.692;2022-10-22T11:38:06;23.70;99.90
19516;DHT22;9901;47.448;7.692;2022-10-22T11:46:27;23.80;99.90
19516;DHT22;9901;47.448;7.692;2022-10-22T11:49:04;23.80;99.90
19516;DHT22;9901;47.448;7.692;2022-10-22T11:51:36;23.90;99.90
19516;DHT22;9901;47.448;7.692;2022-10-22T11:54:29;23.90;99.90
19516;DHT22;9901;47.448;7.692;2022-10-22T11:57:25;24.00;99.90
19516;DHT22;9901;47.448;7.692;2022-10-22T12:00:00;24.20;99.90
19516;DHT22;9901;47.448;7.692;2022-10-22T12:10:25;24.50;99.90
19516;DHT22;9901;47.448;7.692;2022-10-22T12:13:21;24.00;99.90
19516;DHT22;9901;47.448;7.692;2022-10-22T12:15:50;24.50;99.90
19516;DHT22;9901;47.448;7.692;2022-10-22T12:18:17;24.40;99.90
19516;DHT22;9901;47.448;7.692;2022-10-22T12:20:44;24.10;99.90
19516;DHT22;9901;47.448;7.692;2022-10-22T12:23:14;24.10;99.90
19516;DHT22;9901;47.448;7.692;2022-10-22T12:25:40;24.20;99.90
19516;DHT22;9901;47.448;7.692;2022-10-22T12:28:12;24.30;99.90
19516;DHT22;9901;47.448;7.692;2022-10-22T12:30:38;24.40;99.90
19516;DHT22;9901;47.448;7.692;2022-10-22T12:33:06;24.40;99.90
19516;DHT22;9901;47.448;7.692;2022-10-22T12:35:40;24.50;99.90
19516;DHT22;9901;47.448;7.692;2022-10-22T12:38:15;24.60;99.90
19516;DHT22;9901;47.448;7.692;2022-10-22T12:40:41;24.60;99.90
19516;DHT22;9901;47.448;7.692;2022-10-22T12:43:12;24.50;99.90
19516;DHT22;9901;47.448;7.692;2022-10-22T12:45:39;24.50;99.90
19516;DHT22;9901;47.448;7.692;2022-10-22T12:48:13;24.40;99.90
19516;DHT22;9901;47.448;7.692;2022-10-22T12:50:43;24.40;99.90
19516;DHT22;9901;47.448;7.692;2022-10-22T12:55:49;24.30;99.90
19516;DHT22;9901;47.448;7.692;2022-10-22T12:58:19;24.40;99.90
19516;DHT22;9901;47.448;7.692;2022-10-22T13:00:46;24.50;99.90
19516;DHT22;9901;47.448;7.692;2022-10-22T13:03:34;24.40;99.90
19516;DHT22;9901;47.448;7.692;2022-10-22T13:11:20;24.40;99.90
19516;DHT22;9901;47.448;7.692;2022-10-22T13:13:46;24.30;99.90
19516;DHT22;9901;47.448;7.692;2022-10-22T13:16:23;24.30;99.90
19516;DHT22;9901;47.448;7.692;2022-10-22T13:18:51;24.30;99.90
19516;DHT22;9901;47.448;7.692;2022-10-22T13:21:32;24.00;99.90
19516;DHT22;9901;47.448;7.692;2022-10-22T13:24:17;23.90;99.90
19516;DHT22;9901;47.448;7.692;2022-10-22T13:26:48;23.90;99.90
19516;DHT22;9901;47.448;7.692;2022-10-22T13:29:16;24.00;99.90
19516;DHT22;9901;47.448;7.692;2022-10-22T13:31:49;23.80;99.90
19516;DHT22;9901;47.448;7.692;2022-10-22T13:34:21;23.60;99.90
19516;DHT22;9901;47.448;7.692;2022-10-22T13:36:49;23.60;99.90
19516;DHT22;9901;47.448;7.692;2022-10-22T13:39:22;23.40;99.90
19516;DHT22;9901;47.448;7.692;2022-10-22T13:41:50;23.40;99.90
19516;DHT22;9901;47.448;7.692;2022-10-22T13:44:25;23.40;99.90
19516;DHT22;9901;47.448;7.692;2022-10-22T13:46:57;23.30;99.90
19516;DHT22;9901;47.448;7.692;2022-10-22T13:49:22;23.20;99.90
19516;DHT22;9901;47.448;7.692;2022-10-22T13:51:48;23.20;99.90
19516;DHT22;9901;47.448;7.692;2022-10-22T13:54:21;23.10;99.90
19516;DHT22;9901;47.448;7.692;2022-10-22T13:56:48;23.00;99.90
19516;DHT22;9901;47.448;7.692;2022-10-22T13:59:14;22.80;99.90
19516;DHT22;9901;47.448;7.692;2022-10-22T14:01:40;22.70;99.90
19516;DHT22;9901;47.448;7.692;2022-10-22T14:04:09;22.50;99.90
19516;DHT22;9901;47.448;7.692;2022-10-22T14:06:37;22.20;99.90
19516;DHT22;9901;47.448;7.692;2022-10-22T14:09:05;21.90;99.90
19516;DHT22;9901;47.448;7.692;2022-10-22T14:11:33;21.70;99.90
19516;DHT22;9901;47.448;7.692;2022-10-22T14:14:00;21.50;99.90
19516;DHT22;9901;47.448;7.692;2022-10-22T14:16:30;21.30;99.90
19516;DHT22;9901;47.448;7.692;2022-10-22T14:18:57;21.20;99.90
19516;DHT22;9901;47.448;7.692;2022-10-22T14:21:24;21.20;99.90
19516;DHT22;9901;47.448;7.692;2022-10-22T14:23:50;21.10;99.90
19516;DHT22;9901;47.448;7.692;2022-10-22T14:26:23;21.10;99.90
19516;DHT22;9901;47.448;7.692;2022-10-22T14:28:49;21.10;99.90
19516;DHT22;9901;47.448;7.692;2022-10-22T14:31:15;21.20;99.90
19516;DHT22;9901;47.448;7.692;2022-10-22T14:33:41;21.20;99.90
19516;DHT22;9901;47.448;7.692;2022-10-22T14:36:12;21.10;99.90
19516;DHT22;9901;47.448;7.692;2022-10-22T14:38:39;21.00;99.90
19516;DHT22;9901;47.448;7.692;2022-10-22T14:43:41;20.90;99.90
19516;DHT22;9901;47.448;7.692;2022-10-22T14:46:09;20.80;99.90
19516;DHT22;9901;47.448;7.692;2022-10-22T14:48:35;20.80;99.90
19516;DHT22;9901;47.448;7.692;2022-10-22T14:51:01;20.80;99.90
19516;DHT22;9901;47.448;7.692;2022-10-22T14:53:26;20.80;99.90
19516;DHT22;9901;47.448;7.692;2022-10-22T14:55:52;20.70;99.90
19516;DHT22;9901;47.448;7.692;2022-10-22T14:58:22;20.60;99.90
19516;DHT22;9901;47.448;7.692;2022-10-22T15:00:47;20.50;99.90
19516;DHT22;9901;47.448;7.692;2022-10-22T15:03:13;20.50;99.90
19516;DHT22;9901;47.448;7.692;2022-10-22T15:05:40;20.60;99.90
19516;DHT22;9901;47.448;7.692;2022-10-22T15:08:08;20.60;99.90
19516;DHT22;9901;47.448;7.692;2022-10-22T15:10:34;20.70;99.90
19516;DHT22;9901;47.448;7.692;2022-10-22T15:13:00;20.70;99.90
19516;DHT22;9901;47.448;7.692;2022-10-22T15:15:26;20.70;99.90
19516;DHT22;9901;47.448;7.692;2022-10-22T15:17:52;20.70;99.90
19516;DHT22;9901;47.448;7.692;2022-10-22T15:20:17;20.60;99.90
19516;DHT22;9901;47.448;7.692;2022-10-22T15:23:01;20.50;99.90
19516;DHT22;9901;47.448;7.692;2022-10-22T15:25:27;20.40;99.90
19516;DHT22;9901;47.448;7.692;2022-10-22T15:27:53;20.30;99.90
19516;DHT22;9901;47.448;7.692;2022-10-22T15:30:19;20.10;99.90
19516;DHT22;9901;47.448;7.692;2022-10-22T15:32:45;20.20;99.90
19516;DHT22;9901;47.448;7.692;2022-10-22T15:35:10;20.20;99.90
19516;DHT22;9901;47.448;7.692;2022-10-22T15:37:36;20.20;99.90
19516;DHT22;9901;47.448;7.692;2022-10-22T15:40:04;20.20;99.90
19516;DHT22;9901;47.448;7.692;2022-10-22T15:42:31;20.10;99.90
19516;DHT22;9901;47.448;7.692;2022-10-22T15:44:58;20.00;99.90
19516;DHT22;9901;47.448;7.692;2022-10-22T15:47:24;19.90;99.90
19516;DHT22;9901;47.448;7.692;2022-10-22T15:49:53;19.90;99.90
19516;DHT22;9901;47.448;7.692;2022-10-22T15:52:19;19.80;99.90
19516;DHT22;9901;47.448;7.692;2022-10-22T15:54:46;19.70;99.90
19516;DHT22;9901;47.448;7.692;2022-10-22T15:57:11;19.60;99.90
19516;DHT22;9901;47.448;7.692;2022-10-22T15:59:45;19.50;99.90
19516;DHT22;9901;47.448;7.692;2022-10-22T16:02:11;19.40;99.90
19516;DHT22;9901;47.448;7.692;2022-10-22T16:04:37;19.30;99.90
19516;DHT22;9901;47.448;7.692;2022-10-22T16:07:03;19.20;99.90
19516;DHT22;9901;47.448;7.692;2022-10-22T16:09:29;19.00;99.90
19516;DHT22;9901;47.448;7.692;2022-10-22T16:11:55;18.90;99.90
19516;DHT22;9901;47.448;7.692;2022-10-22T16:14:21;18.80;99.90
19516;DHT22;9901;47.448;7.692;2022-10-22T16:16:52;18.80;99.90
19516;DHT22;9901;47.448;7.692;2022-10-22T16:19:19;18.80;99.90
19516;DHT22;9901;47.448;7.692;2022-10-22T16:21:48;18.70;99.90
19516;DHT22;9901;47.448;7.692;2022-10-22T16:24:15;18.60;99.90
19516;DHT22;9901;47.448;7.692;2022-10-22T16:26:44;18.40;99.90
19516;DHT22;9901;47.448;7.692;2022-10-22T16:29:10;18.30;99.90
19516;DHT22;9901;47.448;7.692;2022-10-22T16:31:38;18.20;99.90
19516;DHT22;9901;47.448;7.692;2022-10-22T16:34:04;18.00;99.90
19516;DHT22;9901;47.448;7.692;2022-10-22T16:36:30;17.80;99.90
19516;DHT22;9901;47.448;7.692;2022-10-22T16:39:01;17.70;99.90
19516;DHT22;9901;47.448;7.692;2022-10-22T16:41:27;17.50;99.90
19516;DHT22;9901;47.448;7.692;2022-10-22T16:44:00;17.50;99.90
19516;DHT22;9901;47.448;7.692;2022-10-22T16:46:28;17.50;99.90
19516;DHT22;9901;47.448;7.692;2022-10-22T16:48:56;17.50;99.90
19516;DHT22;9901;47.448;7.692;2022-10-22T16:51:24;17.50;99.90
19516;DHT22;9901;47.448;7.692;2022-10-22T16:53:51;17.50;99.90
19516;DHT22;9901;47.448;7.692;2022-10-22T16:56:17;17.50;99.90
19516;DHT22;9901;47.448;7.692;2022-10-22T16:58:45;17.40;99.90
19516;DHT22;9901;47.448;7.692;2022-10-22T17:01:11;17.30;99.90
19516;DHT22;9901;47.448;7.692;2022-10-22T17:03:41;17.20;99.90
19516;DHT22;9901;47.448;7.692;2022-10-22T17:06:07;17.20;99.90
19516;DHT22;9901;47.448;7.692;2022-10-22T17:08:35;17.10;99.90
19516;DHT22;9901;47.448;7.692;2022-10-22T17:13:31;17.00;99.90
19516;DHT22;9901;47.448;7.692;2022-10-22T17:16:04;16.90;99.90
19516;DHT22;9901;47.448;7.692;2022-10-22T17:18:30;16.90;99.90
19516;DHT22;9901;47.448;7.692;2022-10-22T17:20:56;16.90;99.90
19516;DHT22;9901;47.448;7.692;2022-10-22T17:23:24;16.80;99.90
19516;DHT22;9901;47.448;7.692;2022-10-22T17:28:48;16.80;99.90
19516;DHT22;9901;47.448;7.692;2022-10-22T17:31:18;16.70;99.90
19516;DHT22;9901;47.448;7.692;2022-10-22T17:33:45;16.60;99.90
19516;DHT22;9901;47.448;7.692;2022-10-22T17:36:12;16.60;99.90
19516;DHT22;9901;47.448;7.692;2022-10-22T17:38:41;16.50;99.90
19516;DHT22;9901;47.448;7.692;2022-10-22T17:41:08;16.50;99.90
19516;DHT22;9901;47.448;7.692;2022-10-22T17:43:35;16.50;99.90
19516;DHT22;9901;47.448;7.692;2022-10-22T17:46:09;16.50;99.90
19516;DHT22;9901;47.448;7.692;2022-10-22T17:48:37;16.40;99.90
19516;DHT22;9901;47.448;7.692;2022-10-22T17:51:11;16.30;99.90
19516;DHT22;9901;47.448;7.692;2022-10-22T17:56:18;16.30;99.90
19516;DHT22;9901;47.448;7.692;2022-10-22T17:58:44;16.20;99.90
19516;DHT22;9901;47.448;7.692;2022-10-22T18:01:21;16.20;99.90
19516;DHT22;9901;47.448;7.692;2022-10-22T18:04:04;16.20;99.90
19516;DHT22;9901;47.448;7.692;2022-10-22T18:08:58;16.10;99.90
19516;DHT22;9901;47.448;7.692;2022-10-22T18:11:26;16.10;99.90
19516;DHT22;9901;47.448;7.692;2022-10-22T18:16:19;16.00;99.90
19516;DHT22;9901;47.448;7.692;2022-10-22T18:18:50;16.00;99.90
19516;DHT22;9901;47.448;7.692;2022-10-22T18:21:17;16.00;99.90
19516;DHT22;9901;47.448;7.692;2022-10-22T18:23:43;16.00;99.90
19516;DHT22;9901;47.448;7.692;2022-10-22T18:26:10;16.00;99.90
19516;DHT22;9901;47.448;7.692;2022-10-22T18:28:36;15.90;99.90
19516;DHT22;9901;47.448;7.692;2022-10-22T18:31:06;15.80;99.90
19516;DHT22;9901;47.448;7.692;2022-10-22T18:33:32;15.80;99.90
19516;DHT22;9901;47.448;7.692;2022-10-22T18:36:06;15.70;99.90
19516;DHT22;9901;47.448;7.692;2022-10-22T18:38:33;15.70;99.90
19516;DHT22;9901;47.448;7.692;2022-10-22T18:40:59;15.70;99.90
19516;DHT22;9901;47.448;7.692;2022-10-22T18:43:25;15.70;99.90
19516;DHT22;9901;47.448;7.692;2022-10-22T18:45:51;15.60;99.90
19516;DHT22;9901;47.448;7.692;2022-10-22T18:48:18;15.60;99.90
19516;DHT22;9901;47.448;7.692;2022-10-22T18:50:45;15.50;99.90
19516;DHT22;9901;47.448;7.692;2022-10-22T18:53:13;15.50;99.90
19516;DHT22;9901;47.448;7.692;2022-10-22T18:55:53;15.50;99.90
19516;DHT22;9901;47.448;7.692;2022-10-22T18:58:19;15.60;99.90
19516;DHT22;9901;47.448;7.692;2022-10-22T19:00:45;15.60;99.90
19516;DHT22;9901;47.448;7.692;2022-10-22T19:03:12;15.60;99.90
19516;DHT22;9901;47.448;7.692;2022-10-22T19:05:49;15.60;99.90
19516;DHT22;9901;47.448;7.692;2022-10-22T19:08:15;15.50;99.90
19516;DHT22;9901;47.448;7.692;2022-10-22T19:10:47;15.60;99.90
19516;DHT22;9901;47.448;7.692;2022-10-22T19:13:14;15.60;99.90
19516;DHT22;9901;47.448;7.692;2022-10-22T19:15:40;15.50;99.90
19516;DHT22;9901;47.448;7.692;2022-10-22T19:21:04;15.50;99.90
19516;DHT22;9901;47.448;7.692;2022-10-22T19:23:30;15.50;99.90
19516;DHT22;9901;47.448;7.692;2022-10-22T19:28:29;15.40;99.90
19516;DHT22;9901;47.448;7.692;2022-10-22T19:30:56;15.40;99.90
19516;DHT22;9901;47.448;7.692;2022-10-22T19:33:22;15.40;99.90
19516;DHT22;9901;47.448;7.692;2022-10-22T19:35:48;15.40;99.90
19516;DHT22;9901;47.448;7.692;2022-10-22T19:38:13;15.30;99.90
19516;DHT22;9901;47.448;7.692;2022-10-22T19:40:42;15.30;99.90
19516;DHT22;9901;47.448;7.692;2022-10-22T19:43:08;15.30;99.90
19516;DHT22;9901;47.448;7.692;2022-10-22T19:45:33;15.20;99.90
19516;DHT22;9901;47.448;7.692;2022-10-22T19:48:04;15.20;99.90
19516;DHT22;9901;47.448;7.692;2022-10-22T19:50:30;15.10;99.90
19516;DHT22;9901;47.448;7.692;2022-10-22T19:52:55;15.10;99.90
19516;DHT22;9901;47.448;7.692;2022-10-22T19:55:21;15.10;99.90
19516;DHT22;9901;47.448;7.692;2022-10-22T19:57:47;15.10;99.90
19516;DHT22;9901;47.448;7.692;2022-10-22T20:00:13;15.10;99.90
19516;DHT22;9901;47.448;7.692;2022-10-22T20:02:40;15.00;99.90
19516;DHT22;9901;47.448;7.692;2022-10-22T20:05:06;15.00;99.90
19516;DHT22;9901;47.448;7.692;2022-10-22T20:07:32;15.00;99.90
19516;DHT22;9901;47.448;7.692;2022-10-22T20:09:59;15.10;99.90
19516;DHT22;9901;47.448;7.692;2022-10-22T20:12:25;15.00;99.90
19516;DHT22;9901;47.448;7.692;2022-10-22T20:14:51;15.00;99.90
19516;DHT22;9901;47.448;7.692;2022-10-22T20:17:18;15.00;99.90
19516;DHT22;9901;47.448;7.692;2022-10-22T20:19:44;14.90;99.90
19516;DHT22;9901;47.448;7.692;2022-10-22T20:24:38;14.90;99.90
19516;DHT22;9901;47.448;7.692;2022-10-22T20:27:05;15.00;99.90
19516;DHT22;9901;47.448;7.692;2022-10-22T20:29:31;14.90;99.90
19516;DHT22;9901;47.448;7.692;2022-10-22T20:31:59;14.90;99.90
19516;DHT22;9901;47.448;7.692;2022-10-22T20:34:27;14.90;99.90
19516;DHT22;9901;47.448;7.692;2022-10-22T20:36:52;14.90;99.90
19516;DHT22;9901;47.448;7.692;2022-10-22T20:39:18;14.90;99.90
19516;DHT22;9901;47.448;7.692;2022-10-22T20:41:44;14.80;99.90
19516;DHT22;9901;47.448;7.692;2022-10-22T20:44:13;14.80;99.90
19516;DHT22;9901;47.448;7.692;2022-10-22T20:46:38;14.80;99.90
19516;DHT22;9901;47.448;7.692;2022-10-22T20:49:07;14.80;99.90
19516;DHT22;9901;47.448;7.692;2022-10-22T20:51:37;14.80;99.90
19516;DHT22;9901;47.448;7.692;2022-10-22T20:54:04;14.80;99.90
19516;DHT22;9901;47.448;7.692;2022-10-22T20:56:31;14.70;99.90
19516;DHT22;9901;47.448;7.692;2022-10-22T20:58:58;14.70;99.90
19516;DHT22;9901;47.448;7.692;2022-10-22T21:01:55;14.70;99.90
19516;DHT22;9901;47.448;7.692;2022-10-22T21:04:21;14.60;99.90
19516;DHT22;9901;47.448;7.692;2022-10-22T21:06:47;14.60;99.90
19516;DHT22;9901;47.448;7.692;2022-10-22T21:09:14;14.70;99.90
19516;DHT22;9901;47.448;7.692;2022-10-22T21:11:41;14.60;99.90
19516;DHT22;9901;47.448;7.692;2022-10-22T21:14:09;14.60;99.90
19516;DHT22;9901;47.448;7.692;2022-10-22T21:16:42;14.60;99.90
19516;DHT22;9901;47.448;7.692;2022-10-22T21:19:08;14.50;99.90
19516;DHT22;9901;47.448;7.692;2022-10-22T21:21:34;14.50;99.90
19516;DHT22;9901;47.448;7.692;2022-10-22T21:28:52;14.40;99.90
19516;DHT22;9901;47.448;7.692;2022-10-22T21:31:18;14.40;99.90
19516;DHT22;9901;47.448;7.692;2022-10-22T21:33:50;14.40;99.90
19516;DHT22;9901;47.448;7.692;2022-10-22T21:36:17;14.40;99.90
19516;DHT22;9901;47.448;7.692;2022-10-22T21:38:42;14.40;99.90
19516;DHT22;9901;47.448;7.692;2022-10-22T21:41:10;14.30;99.90
19516;DHT22;9901;47.448;7.692;2022-10-22T21:43:37;14.30;99.90
19516;DHT22;9901;47.448;7.692;2022-10-22T21:46:15;14.30;99.90
19516;DHT22;9901;47.448;7.692;2022-10-22T21:53:35;14.20;99.90
19516;DHT22;9901;47.448;7.692;2022-10-22T21:56:01;14.20;99.90
19516;DHT22;9901;47.448;7.692;2022-10-22T21:58:27;14.20;99.90
19516;DHT22;9901;47.448;7.692;2022-10-22T22:00:57;14.20;99.90
19516;DHT22;9901;47.448;7.692;2022-10-22T22:08:15;14.10;99.90
19516;DHT22;9901;47.448;7.692;2022-10-22T22:13:08;14.10;99.90
19516;DHT22;9901;47.448;7.692;2022-10-22T22:15:33;14.10;99.90
19516;DHT22;9901;47.448;7.692;2022-10-22T22:18:00;14.00;99.90
